Tipton, Indiana
Current Conditions -  °F | °C
As of 8:15 AM on Friday 24 Oct 2014 (Local Time) from KOKK Reporting Station
Overcast Overcast  
Wind Chill: 44°   Ceiling: 6000
Heat Index: 46°   Visibility: 9mi
Dew Point: 41°   Wind: 5mph
Humidity: 81%   Direction: 240°WSW
Pressure: 30.1"   Gusts: NA
Location:  40.28°N, 86.04°W
Report Text: KOKK 241215Z AUTO 24004KT 9SM FEW049 BKN060 OVC080 08/05 A3010 RMK AO1
Loading
Personal Weather Stations






























Interactive Weather Map New forecast layout! Learn more

10-Day Weather Forecast

Advertisements
Track Severe Weather on mobile